createdAt,value
2023-01-19T00:01:54.012Z,11.03
2023-01-19T00:04:23.553Z,10.20
2023-01-19T00:06:53.068Z,10.67
2023-01-19T00:09:23.272Z,8.60
2023-01-19T00:11:55.284Z,10.20
2023-01-19T00:14:24.929Z,11.33
2023-01-19T00:16:54.361Z,9.10
2023-01-19T00:19:23.985Z,10.43
2023-01-19T00:21:53.485Z,14.17
2023-01-19T00:24:23.082Z,10.27
2023-01-19T00:26:55.112Z,10.17
2023-01-19T00:29:24.625Z,10.43
2023-01-19T00:31:54.139Z,11.13
2023-01-19T00:34:23.656Z,10.80
2023-01-19T00:36:53.125Z,11.87
2023-01-19T00:39:22.756Z,11.40
2023-01-19T00:42:04.923Z,15.13
2023-01-19T00:44:37.093Z,8.57
2023-01-19T00:47:06.827Z,12.40
2023-01-19T00:49:36.297Z,10.40
2023-01-19T00:52:05.821Z,10.40
2023-01-19T00:54:35.320Z,9.10
2023-01-19T00:57:05.111Z,13.10
2023-01-19T00:59:37.198Z,9.90
2023-01-19T01:02:06.955Z,11.23
2023-01-19T01:04:36.659Z,10.00
2023-01-19T01:07:06.296Z,8.03
2023-01-19T01:09:35.768Z,9.60
2023-01-19T01:12:05.895Z,11.80
2023-01-19T01:14:38.415Z,11.77
2023-01-19T01:17:11.361Z,10.80
2023-01-19T01:19:40.926Z,9.97
2023-01-19T01:22:10.600Z,9.40
2023-01-19T01:24:40.175Z,8.77
2023-01-19T01:27:09.655Z,13.20
2023-01-19T01:29:41.957Z,9.37
2023-01-19T01:32:11.562Z,11.23
2023-01-19T01:34:41.025Z,8.37
2023-01-19T01:37:10.709Z,9.63
2023-01-19T01:39:40.529Z,10.37
2023-01-19T01:42:16.954Z,10.17
2023-01-19T01:44:54.124Z,9.47
2023-01-19T01:47:31.641Z,13.23
2023-01-19T01:50:06.004Z,9.90
2023-01-19T01:52:36.668Z,9.77
2023-01-19T01:55:07.859Z,8.57
2023-01-19T01:57:38.656Z,12.70
2023-01-19T02:00:11.825Z,10.30
2023-01-19T02:02:55.266Z,10.50
2023-01-19T02:05:26.391Z,7.63
2023-01-19T02:08:11.225Z,10.80
2023-01-19T02:10:53.455Z,8.93
2023-01-19T02:13:23.334Z,8.97
2023-01-19T02:15:56.115Z,8.60
2023-01-19T02:18:26.712Z,9.20
2023-01-19T02:21:06.497Z,9.80
2023-01-19T02:23:49.426Z,8.87
2023-01-19T02:26:20.478Z,10.50
2023-01-19T02:28:52.037Z,9.90
2023-01-19T02:31:21.834Z,15.07
2023-01-19T02:33:51.624Z,10.67
2023-01-19T03:08:51.372Z,12.20
2023-01-19T03:11:21.485Z,10.43
2023-01-19T03:13:54.629Z,12.30
2023-01-19T03:16:27.165Z,10.40
2023-01-19T03:18:58.879Z,11.13
2023-01-19T03:21:30.362Z,10.23
2023-01-19T03:24:05.327Z,9.93
2023-01-19T03:26:38.264Z,10.23
2023-01-19T03:29:08.391Z,9.50
2023-01-19T03:31:39.628Z,13.07
2023-01-19T03:34:11.331Z,18.13
2023-01-19T03:36:43.914Z,11.27
2023-01-19T03:39:17.356Z,11.43
2023-01-19T03:41:47.250Z,10.97
2023-01-19T03:44:16.822Z,9.23
2023-01-19T03:46:47.580Z,9.90
2023-01-19T03:49:17.151Z,15.07
2023-01-19T03:51:46.648Z,12.70
2023-01-19T03:54:18.804Z,11.13
2023-01-19T03:56:48.306Z,11.70
2023-01-19T03:59:19.716Z,10.77
2023-01-19T04:01:49.496Z,10.73
2023-01-19T04:04:19.043Z,11.97
2023-01-19T04:06:48.637Z,11.30
2023-01-19T04:09:20.746Z,10.27
2023-01-19T04:11:50.304Z,10.93
2023-01-19T04:14:19.850Z,12.57
2023-01-19T04:16:49.448Z,10.83
2023-01-19T04:19:18.956Z,12.13
2023-01-19T04:21:50.835Z,11.63
2023-01-19T04:24:23.063Z,11.83
2023-01-19T04:26:53.743Z,9.47
2023-01-19T04:29:24.591Z,13.63
2023-01-19T04:31:54.198Z,11.63
2023-01-19T04:34:23.767Z,10.53
2023-01-19T04:36:56.109Z,13.57
2023-01-19T04:39:28.842Z,13.17
2023-01-19T04:41:58.605Z,11.87
2023-01-19T04:44:28.113Z,13.37
2023-01-19T04:46:57.806Z,12.40
2023-01-19T04:49:27.442Z,15.87
2023-01-19T04:51:56.932Z,12.83
2023-01-19T04:54:29.068Z,10.03
2023-01-19T04:56:58.747Z,11.50
2023-01-19T04:59:28.199Z,11.60
2023-01-19T05:01:58.885Z,12.50
2023-01-19T05:04:28.536Z,12.60
2023-01-19T05:06:58.374Z,12.80
2023-01-19T05:09:30.408Z,11.10
2023-01-19T05:12:00.000Z,10.17
2023-01-19T05:14:29.526Z,11.40
2023-01-19T05:16:58.993Z,11.33
2023-01-19T05:19:28.444Z,12.37
2023-01-19T05:21:57.886Z,14.27
2023-01-19T05:24:30.036Z,14.63
2023-01-19T05:26:59.748Z,12.97
2023-01-19T05:29:29.240Z,12.87
2023-01-19T05:31:58.730Z,13.77
2023-01-19T05:34:28.164Z,12.03
2023-01-19T05:36:57.925Z,12.23
2023-01-19T05:39:30.403Z,10.97
2023-01-19T05:41:59.945Z,11.77
2023-01-19T05:44:29.684Z,11.40
2023-01-19T05:46:59.265Z,11.15
2023-01-19T05:49:29.444Z,13.20
2023-01-19T05:51:58.879Z,10.87
2023-01-19T05:54:30.962Z,13.70
2023-01-19T05:57:00.591Z,10.93
2023-01-19T05:59:30.023Z,9.97
2023-01-19T06:02:00.123Z,12.50
2023-01-19T06:04:29.719Z,11.57
2023-01-19T06:06:59.216Z,10.40
2023-01-19T06:09:31.927Z,12.00
2023-01-19T06:12:01.609Z,11.97
2023-01-19T06:14:31.471Z,11.50
2023-01-19T06:17:01.010Z,14.03
2023-01-19T06:19:30.667Z,10.53
2023-01-19T06:22:00.178Z,11.97
2023-01-19T06:24:33.056Z,11.23
2023-01-19T06:27:02.809Z,8.90
2023-01-19T06:29:32.335Z,9.37
2023-01-19T06:32:01.834Z,9.47
2023-01-19T06:34:31.510Z,9.37
2023-01-19T06:37:01.052Z,11.87
2023-01-19T06:39:33.260Z,12.33
2023-01-19T06:42:02.987Z,13.43
2023-01-19T06:44:32.510Z,13.33
2023-01-19T06:47:15.830Z,12.20
2023-01-19T06:49:45.671Z,11.47
2023-01-19T06:52:17.182Z,14.83
2023-01-19T06:54:49.776Z,13.47
2023-01-19T06:57:19.467Z,14.80
2023-01-19T06:59:49.079Z,10.73
2023-01-19T07:02:27.510Z,11.53
2023-01-19T07:04:58.057Z,11.00
2023-01-19T07:07:28.102Z,12.30
2023-01-19T07:10:00.244Z,13.60
2023-01-19T07:12:29.945Z,12.70
2023-01-19T07:14:59.565Z,13.27
2023-01-19T07:17:29.247Z,13.63
2023-01-19T07:19:58.812Z,10.73
2023-01-19T07:22:28.380Z,14.57
2023-01-19T07:25:00.521Z,11.03
2023-01-19T07:27:30.296Z,10.07
2023-01-19T07:30:01.192Z,11.40
2023-01-19T07:32:31.185Z,10.30
2023-01-19T07:35:00.701Z,12.50
2023-01-19T07:37:30.319Z,9.83
2023-01-19T07:40:02.456Z,12.50
2023-01-19T07:42:32.149Z,9.53
2023-01-19T08:29:34.188Z,11.43
2023-01-19T08:32:03.982Z,12.43
2023-01-19T08:34:33.849Z,12.50
2023-01-19T08:37:03.377Z,10.93
2023-01-19T08:39:33.128Z,12.73
2023-01-19T08:42:06.058Z,13.50
2023-01-19T08:44:43.882Z,15.23
2023-01-19T08:47:20.371Z,10.40
2023-01-19T08:49:49.967Z,9.53
2023-01-19T08:52:19.520Z,12.57
2023-01-19T08:54:49.082Z,11.77
2023-01-19T08:57:18.683Z,13.10
2023-01-19T08:59:50.920Z,9.13
2023-01-19T09:02:20.610Z,10.53
2023-01-19T09:04:50.339Z,13.00
2023-01-19T09:07:21.201Z,13.57
2023-01-19T09:09:50.764Z,10.37
2023-01-19T09:12:20.208Z,11.53
2023-01-19T09:14:52.468Z,11.53
2023-01-19T09:17:22.085Z,9.53
2023-01-19T09:19:51.792Z,13.73
2023-01-19T09:22:21.432Z,10.60
2023-01-19T09:24:50.969Z,14.67
2023-01-19T09:27:20.508Z,10.23
2023-01-19T09:29:54.254Z,9.17
2023-01-19T09:32:24.518Z,10.23
2023-01-19T09:34:55.119Z,10.67
2023-01-19T09:37:24.748Z,9.43
2023-01-19T09:39:54.281Z,11.30
2023-01-19T09:42:27.553Z,10.93
2023-01-19T09:44:59.807Z,9.47
2023-01-19T09:47:31.059Z,8.93
2023-01-19T09:50:04.410Z,9.00
2023-01-19T09:52:35.894Z,10.37
2023-01-19T09:55:05.458Z,8.10
2023-01-19T09:57:35.281Z,9.30
2023-01-19T10:00:10.028Z,8.33
2023-01-19T10:02:45.744Z,10.97
2023-01-19T10:05:24.945Z,8.50
2023-01-19T10:08:03.712Z,7.90
2023-01-19T10:10:34.110Z,7.83
2023-01-19T10:13:17.116Z,8.00
2023-01-19T10:15:55.336Z,7.87
2023-01-19T10:18:31.030Z,7.87
2023-01-19T10:21:05.557Z,8.17
2023-01-19T10:23:39.524Z,8.57
2023-01-19T10:26:11.219Z,8.03
2023-01-19T10:28:41.520Z,7.53
2023-01-19T10:31:14.400Z,6.70
2023-01-19T10:33:44.003Z,8.00
2023-01-19T10:36:19.912Z,7.77
2023-01-19T10:38:51.042Z,9.50
2023-01-19T10:41:22.529Z,9.67
2023-01-19T10:43:52.081Z,7.93
2023-01-19T10:46:32.242Z,10.03
2023-01-19T10:49:01.918Z,8.33
2023-01-19T10:51:31.547Z,9.27
2023-01-19T10:54:03.156Z,8.00
2023-01-19T10:56:34.613Z,9.47
2023-01-19T10:59:05.074Z,8.40
2023-01-19T11:01:38.779Z,8.43
2023-01-19T11:04:23.351Z,8.70
2023-01-19T11:06:52.982Z,8.33
2023-01-19T11:09:23.615Z,8.63
2023-01-19T11:11:54.131Z,8.13
2023-01-19T11:14:24.969Z,9.37
2023-01-19T11:16:57.969Z,8.07
2023-01-19T11:19:28.943Z,7.83
2023-01-19T11:22:11.133Z,7.63
2023-01-19T11:24:41.844Z,8.67
2023-01-19T11:27:11.409Z,11.47
2023-01-19T11:29:41.749Z,9.00
2023-01-19T11:32:22.645Z,10.43
2023-01-19T11:34:52.421Z,9.97
2023-01-19T11:37:29.253Z,8.87
2023-01-19T11:39:59.854Z,8.73
2023-01-19T11:42:31.027Z,9.97
2023-01-19T11:45:03.035Z,7.73
2023-01-19T11:47:38.106Z,9.30
2023-01-19T11:50:08.959Z,13.07
2023-01-19T11:52:43.164Z,6.93
2023-01-19T11:55:17.634Z,8.57
2023-01-19T11:57:48.517Z,8.67
2023-01-19T12:00:25.431Z,7.47
2023-01-19T12:03:01.496Z,9.87
2023-01-19T12:05:33.514Z,9.23
2023-01-19T12:08:06.860Z,9.93
2023-01-19T12:10:38.737Z,8.20
2023-01-19T12:13:08.300Z,8.80
2023-01-19T12:15:39.886Z,9.53
2023-01-19T12:18:15.739Z,8.17
2023-01-19T12:20:46.726Z,7.00
2023-01-19T12:23:22.161Z,7.70
2023-01-19T12:25:56.165Z,7.13
2023-01-19T12:28:29.135Z,7.63
2023-01-19T12:30:59.142Z,8.03
2023-01-19T12:33:41.786Z,7.23
2023-01-19T12:36:14.257Z,7.40
2023-01-19T12:38:45.968Z,10.63
2023-01-19T12:41:33.105Z,8.80
2023-01-19T12:44:19.213Z,9.60
2023-01-19T12:46:50.173Z,8.13
2023-01-19T12:49:30.281Z,6.47
2023-01-19T12:52:14.376Z,7.50
2023-01-19T12:54:45.461Z,9.13
2023-01-19T12:57:21.204Z,7.13
2023-01-19T12:59:57.793Z,9.37
2023-01-19T13:02:39.328Z,7.70
2023-01-19T13:05:19.550Z,7.57
2023-01-19T13:08:04.954Z,6.90
2023-01-19T13:10:49.586Z,7.13
2023-01-19T13:13:20.623Z,7.33
2023-01-19T13:15:51.096Z,8.37
2023-01-19T13:18:21.188Z,6.83
2023-01-19T13:20:55.905Z,7.57
2023-01-19T13:23:27.577Z,7.77
2023-01-19T13:26:01.695Z,6.87
2023-01-19T13:28:38.276Z,6.13
2023-01-19T13:31:10.155Z,9.10
2023-01-19T13:33:41.499Z,6.40
2023-01-19T13:36:22.386Z,7.37
2023-01-19T13:38:52.950Z,4.57
2023-01-19T13:41:24.466Z,4.20
2023-01-19T13:43:57.729Z,5.13
2023-01-19T13:46:28.137Z,4.77
2023-01-19T13:48:58.776Z,4.00
2023-01-19T13:51:31.223Z,4.43
2023-01-19T13:54:01.798Z,4.20
2023-01-19T13:56:31.843Z,4.30
2023-01-19T13:59:04.013Z,4.30
2023-01-19T14:01:34.064Z,4.17
2023-01-19T14:04:03.856Z,4.50
2023-01-19T14:06:40.727Z,5.40
2023-01-19T14:09:18.632Z,6.07
2023-01-19T14:11:48.711Z,4.20
2023-01-19T14:14:24.978Z,5.70
2023-01-19T14:16:54.768Z,3.93
2023-01-19T14:19:24.411Z,5.13
2023-01-19T14:22:06.756Z,5.50
2023-01-19T14:24:36.288Z,3.30
2023-01-19T14:27:14.415Z,4.43
2023-01-19T14:29:45.670Z,3.30
2023-01-19T14:32:16.582Z,4.07
2023-01-19T14:34:47.258Z,3.83
2023-01-19T14:37:24.092Z,3.77
2023-01-19T14:39:54.268Z,3.40
2023-01-19T14:42:26.241Z,4.07
2023-01-19T14:44:56.583Z,4.43
2023-01-19T14:47:40.909Z,4.07
2023-01-19T14:50:20.208Z,4.37
2023-01-19T14:52:55.893Z,3.73
2023-01-19T14:55:27.724Z,4.80
2023-01-19T14:57:57.703Z,5.33
2023-01-19T15:00:27.467Z,4.53
2023-01-19T15:02:57.000Z,4.80
2023-01-19T15:05:26.565Z,4.43
2023-01-19T15:07:58.741Z,5.47
2023-01-19T15:10:29.051Z,4.07
2023-01-19T15:12:59.012Z,4.73
2023-01-19T15:15:31.016Z,4.73
2023-01-19T15:18:00.958Z,5.30
2023-01-19T15:20:30.607Z,8.03
2023-01-19T15:23:02.703Z,6.23
2023-01-19T15:25:32.344Z,5.70
2023-01-19T15:28:02.015Z,5.43
2023-01-19T15:30:33.713Z,7.30
2023-01-19T15:33:03.325Z,7.60
2023-01-19T15:35:32.891Z,7.97
2023-01-19T15:38:05.033Z,13.97
2023-01-19T15:40:34.657Z,9.37
2023-01-19T15:43:04.142Z,9.63
2023-01-19T15:45:36.175Z,11.43
2023-01-19T15:48:06.761Z,6.50
2023-01-19T15:50:36.420Z,10.13
2023-01-19T15:53:08.722Z,19.70
2023-01-19T15:55:38.596Z,10.90
2023-01-19T15:58:08.079Z,11.27
2023-01-19T16:00:37.702Z,8.33
2023-01-19T16:03:07.448Z,9.93
2023-01-19T16:05:42.981Z,10.43
2023-01-19T16:08:16.033Z,15.07
2023-01-19T16:10:45.531Z,11.43
2023-01-19T16:13:15.101Z,7.20
2023-01-19T16:15:44.995Z,6.33
2023-01-19T16:18:14.564Z,5.90
2023-01-19T16:20:43.998Z,5.00
2023-01-19T16:23:16.171Z,4.90
2023-01-19T16:25:45.884Z,7.73
2023-01-19T16:28:15.442Z,6.03
2023-01-19T16:30:45.074Z,5.73
2023-01-19T16:33:14.576Z,5.57
2023-01-19T16:35:44.141Z,6.97
2023-01-19T16:38:16.371Z,4.97
2023-01-19T16:40:46.802Z,5.97
2023-01-19T16:43:16.716Z,5.73
2023-01-19T16:45:58.519Z,5.47
2023-01-19T16:48:28.507Z,5.80
2023-01-19T16:51:05.035Z,6.07
2023-01-19T16:53:37.330Z,7.93
2023-01-19T16:56:07.604Z,5.33
2023-01-19T16:58:38.521Z,7.43
2023-01-19T17:01:12.183Z,6.03
2023-01-19T17:03:42.384Z,6.50
2023-01-19T17:06:12.751Z,6.97
2023-01-19T17:08:45.028Z,6.17
2023-01-19T17:11:19.521Z,6.83
2023-01-19T17:13:49.075Z,5.20
2023-01-19T17:16:18.599Z,5.80
2023-01-19T17:18:48.298Z,6.37
2023-01-19T17:21:18.927Z,5.87
2023-01-19T17:23:53.596Z,10.07
2023-01-19T17:26:23.933Z,5.63
2023-01-19T17:28:53.891Z,5.30
2023-01-19T17:31:24.119Z,5.80
2023-01-19T17:33:53.703Z,6.40
2023-01-19T17:36:25.335Z,7.80
2023-01-19T17:38:58.665Z,18.00
2023-01-19T17:41:29.320Z,12.93
2023-01-19T17:43:59.205Z,10.30
2023-01-19T17:46:29.689Z,13.73
2023-01-19T17:48:59.597Z,10.50
2023-01-19T17:51:29.500Z,7.00
2023-01-19T17:54:01.812Z,8.73
2023-01-19T17:56:36.784Z,10.20
2023-01-19T17:59:08.259Z,8.60
2023-01-19T18:01:40.625Z,6.97
2023-01-19T18:04:10.695Z,7.17
2023-01-19T18:06:41.282Z,7.07
2023-01-19T18:09:14.703Z,5.97
2023-01-19T18:11:45.421Z,9.00
2023-01-19T18:14:14.971Z,6.57
2023-01-19T18:16:44.455Z,6.03
2023-01-19T18:19:14.083Z,7.00
2023-01-19T18:21:43.598Z,9.47
2023-01-19T18:24:15.788Z,6.90
2023-01-19T18:26:45.452Z,11.10
2023-01-19T18:29:16.732Z,6.60
2023-01-19T18:31:46.284Z,8.30
2023-01-19T18:34:15.873Z,6.80
2023-01-19T18:36:45.530Z,7.77
2023-01-19T18:39:17.641Z,7.87
2023-01-19T18:41:47.454Z,7.93
2023-01-19T18:44:16.953Z,13.60
2023-01-19T18:46:46.502Z,20.50
2023-01-19T18:49:16.058Z,10.27
2023-01-19T18:51:45.520Z,7.13
2023-01-19T18:54:17.640Z,7.73
2023-01-19T18:56:47.207Z,6.70
2023-01-19T18:59:16.682Z,12.97
2023-01-19T19:01:46.418Z,6.27
2023-01-19T19:04:15.944Z,10.23
2023-01-19T19:06:45.453Z,6.03
2023-01-19T19:09:17.607Z,5.63
2023-01-19T19:11:47.620Z,7.93
2023-01-19T19:14:17.138Z,7.03
2023-01-19T19:16:46.656Z,7.63
2023-01-19T19:19:16.094Z,6.90
2023-01-19T19:21:45.857Z,7.47
2023-01-19T19:24:17.944Z,9.43
2023-01-19T19:26:47.561Z,7.27
2023-01-19T19:29:17.072Z,7.93
2023-01-19T19:31:46.724Z,7.27
2023-01-19T19:34:16.257Z,8.50
2023-01-19T19:36:45.794Z,6.50
2023-01-19T19:39:17.891Z,7.97
2023-01-19T19:41:47.390Z,9.37
2023-01-19T19:44:16.874Z,6.93
2023-01-19T19:46:46.403Z,5.60
2023-01-19T19:49:17.816Z,7.03
2023-01-19T19:51:48.021Z,5.83
2023-01-19T19:54:20.227Z,6.17
2023-01-19T19:56:52.053Z,5.80
2023-01-19T19:59:21.569Z,6.37
2023-01-19T20:01:52.409Z,6.70
2023-01-19T20:04:23.962Z,5.33
2023-01-19T20:06:53.643Z,5.50
2023-01-19T20:09:25.733Z,8.27
2023-01-19T20:11:55.353Z,6.80
2023-01-19T20:14:25.259Z,8.07
2023-01-19T20:16:54.771Z,5.83
2023-01-19T20:19:24.269Z,6.93
2023-01-19T20:21:53.817Z,7.70
2023-01-19T20:24:25.916Z,6.20
2023-01-19T20:26:57.256Z,6.17
2023-01-19T20:29:26.989Z,6.50
2023-01-19T20:31:57.919Z,6.10
2023-01-19T20:34:29.120Z,6.17
2023-01-19T20:36:59.638Z,6.40
2023-01-19T20:39:33.636Z,5.97
2023-01-19T20:42:03.240Z,8.57
2023-01-19T20:44:33.036Z,8.37
2023-01-19T20:47:04.197Z,6.93
2023-01-19T20:49:34.885Z,6.87
2023-01-19T20:52:04.713Z,7.60
2023-01-19T20:54:36.903Z,5.80
2023-01-19T20:57:06.628Z,6.90
2023-01-19T20:59:37.078Z,6.50
2023-01-19T21:02:12.481Z,6.30
2023-01-19T21:04:42.157Z,6.33
2023-01-19T21:07:11.808Z,6.43
2023-01-19T21:09:44.032Z,6.13
2023-01-19T21:12:15.214Z,6.97
2023-01-19T21:14:46.196Z,7.33
2023-01-19T21:17:15.805Z,6.87
2023-01-19T21:19:45.309Z,8.67
2023-01-19T21:22:14.807Z,8.33
2023-01-19T21:24:46.881Z,7.57
2023-01-19T21:27:16.500Z,11.10
2023-01-19T21:29:45.968Z,7.93
2023-01-19T21:32:15.454Z,8.50
2023-01-19T21:34:45.788Z,6.80
2023-01-19T21:37:15.288Z,8.00
2023-01-19T21:39:47.580Z,6.37
2023-01-19T21:42:17.145Z,7.20
2023-01-19T21:44:46.628Z,9.37
2023-01-19T21:47:16.232Z,7.40
2023-01-19T21:49:45.707Z,7.37
2023-01-19T21:52:15.246Z,7.10
2023-01-19T21:54:47.389Z,8.23
2023-01-19T21:57:19.689Z,7.00
2023-01-19T21:59:49.339Z,6.67
2023-01-19T22:02:33.318Z,8.60
2023-01-19T22:05:07.818Z,6.23
2023-01-19T22:07:37.335Z,7.50
2023-01-19T22:10:11.117Z,7.60
2023-01-19T22:12:41.056Z,12.20
2023-01-19T22:15:11.889Z,6.43
2023-01-19T22:17:41.571Z,9.50
2023-01-19T22:20:11.945Z,6.90
2023-01-19T22:22:41.397Z,8.30
2023-01-19T22:25:15.173Z,7.83
2023-01-19T22:27:45.022Z,10.17
2023-01-19T22:30:14.595Z,7.83
2023-01-19T22:32:44.805Z,7.83
2023-01-19T22:35:15.394Z,7.10
2023-01-19T22:37:45.124Z,8.27
2023-01-19T22:40:17.546Z,6.40
2023-01-19T22:42:48.005Z,6.87
2023-01-19T22:45:17.694Z,8.73
2023-01-19T22:47:47.275Z,9.67
2023-01-19T22:50:17.015Z,8.00
2023-01-19T22:52:46.522Z,7.93
2023-01-19T22:55:18.718Z,6.63
2023-01-19T22:57:48.449Z,7.27
2023-01-19T23:00:18.521Z,6.80
2023-01-19T23:02:49.581Z,7.37
2023-01-19T23:05:19.104Z,8.13
2023-01-19T23:07:48.568Z,6.37
2023-01-19T23:10:20.841Z,7.27
2023-01-19T23:12:51.599Z,7.87
2023-01-19T23:15:21.153Z,7.80
2023-01-19T23:17:53.031Z,6.50
2023-01-19T23:20:23.151Z,7.73
2023-01-19T23:22:52.616Z,8.07
2023-01-19T23:25:24.762Z,7.77
2023-01-19T23:27:54.286Z,6.60
2023-01-19T23:30:23.809Z,8.77
2023-01-19T23:32:53.359Z,8.33
2023-01-19T23:35:22.807Z,7.57
2023-01-19T23:37:52.312Z,7.77
2023-01-19T23:40:24.432Z,8.30
2023-01-19T23:42:53.903Z,9.17
2023-01-19T23:45:23.399Z,6.23
2023-01-19T23:47:52.911Z,10.50
2023-01-19T23:50:22.558Z,7.53
2023-01-19T23:52:52.591Z,6.27
2023-01-19T23:55:24.629Z,8.43
2023-01-19T23:57:54.261Z,10.70
